sensor_id;sensor_type;location;lat;lon;timestamp;pressure;altitude;pressure_sealevel;temperature;humidity
39265;BME280;42646;51.910;7.724;2023-05-24T00:02:12;101739.34;;;8.42;79.47
39265;BME280;42646;51.910;7.724;2023-05-24T00:04:40;101732.34;;;8.41;79.70
39265;BME280;42646;51.910;7.724;2023-05-24T00:07:08;101723.56;;;8.40;80.14
39265;BME280;42646;51.910;7.724;2023-05-24T00:09:37;101729.91;;;8.38;80.37
39265;BME280;42646;51.910;7.724;2023-05-24T00:12:05;101725.56;;;8.37;80.03
39265;BME280;42646;51.910;7.724;2023-05-24T00:14:33;101724.75;;;8.35;80.48
39265;BME280;42646;51.910;7.724;2023-05-24T00:17:00;101724.88;;;8.33;80.27
39265;BME280;42646;51.910;7.724;2023-05-24T00:19:28;101724.97;;;8.32;80.50
39265;BME280;42646;51.910;7.724;2023-05-24T00:21:56;101718.91;;;8.29;80.85
39265;BME280;42646;51.910;7.724;2023-05-24T00:24:24;101727.06;;;8.26;81.45
39265;BME280;42646;51.910;7.724;2023-05-24T00:26:53;101724.59;;;8.23;81.36
39265;BME280;42646;51.910;7.724;2023-05-24T00:29:20;101731.91;;;8.20;81.69
39265;BME280;42646;51.910;7.724;2023-05-24T00:31:48;101737.47;;;8.15;81.88
39265;BME280;42646;51.910;7.724;2023-05-24T00:34:16;101735.69;;;8.16;81.87
39265;BME280;42646;51.910;7.724;2023-05-24T00:36:44;101732.28;;;8.14;82.19
39265;BME280;42646;51.910;7.724;2023-05-24T00:39:11;101726.22;;;8.12;81.82
39265;BME280;42646;51.910;7.724;2023-05-24T00:41:41;101728.13;;;8.10;81.94
39265;BME280;42646;51.910;7.724;2023-05-24T00:44:10;101724.72;;;8.08;81.78
39265;BME280;42646;51.910;7.724;2023-05-24T00:46:38;101727.44;;;8.06;82.34
39265;BME280;42646;51.910;7.724;2023-05-24T00:49:07;101723.09;;;8.05;83.17
39265;BME280;42646;51.910;7.724;2023-05-24T00:51:36;101721.50;;;8.02;84.11
39265;BME280;42646;51.910;7.724;2023-05-24T00:54:04;101722.00;;;7.95;85.41
39265;BME280;42646;51.910;7.724;2023-05-24T00:56:33;101714.50;;;7.87;86.15
39265;BME280;42646;51.910;7.724;2023-05-24T00:59:01;101709.00;;;7.76;87.05
39265;BME280;42646;51.910;7.724;2023-05-24T01:01:31;101705.88;;;7.69;87.51
39265;BME280;42646;51.910;7.724;2023-05-24T01:03:59;101702.66;;;7.64;87.58
39265;BME280;42646;51.910;7.724;2023-05-24T01:06:30;101698.59;;;7.59;87.85
39265;BME280;42646;51.910;7.724;2023-05-24T01:09:07;101699.06;;;7.51;88.37
39265;BME280;42646;51.910;7.724;2023-05-24T01:11:49;101700.38;;;7.44;88.66
39265;BME280;42646;51.910;7.724;2023-05-24T01:14:26;101703.41;;;7.38;89.19
39265;BME280;42646;51.910;7.724;2023-05-24T01:17:03;101696.56;;;7.34;89.34
39265;BME280;42646;51.910;7.724;2023-05-24T01:19:51;101700.53;;;7.27;89.56
39265;BME280;42646;51.910;7.724;2023-05-24T01:22:39;101693.06;;;7.19;89.95
39265;BME280;42646;51.910;7.724;2023-05-24T01:25:44;101695.22;;;7.12;90.18
39265;BME280;42646;51.910;7.724;2023-05-24T01:28:15;101685.84;;;7.07;90.47
39265;BME280;42646;51.910;7.724;2023-05-24T01:30:44;101677.44;;;7.00;90.71
39265;BME280;42646;51.910;7.724;2023-05-24T01:33:11;101688.28;;;6.95;91.17
39265;BME280;42646;51.910;7.724;2023-05-24T01:35:39;101694.69;;;6.91;91.64
39265;BME280;42646;51.910;7.724;2023-05-24T01:38:08;101683.50;;;6.86;91.73
39265;BME280;42646;51.910;7.724;2023-05-24T01:40:38;101687.28;;;6.82;92.21
39265;BME280;42646;51.910;7.724;2023-05-24T01:43:17;101683.97;;;6.79;92.19
39265;BME280;42646;51.910;7.724;2023-05-24T01:45:53;101692.16;;;6.74;92.89
39265;BME280;42646;51.910;7.724;2023-05-24T01:48:29;101686.28;;;6.69;92.58
39265;BME280;42646;51.910;7.724;2023-05-24T01:50:58;101688.31;;;6.64;92.88
39265;BME280;42646;51.910;7.724;2023-05-24T01:53:31;101685.97;;;6.59;93.09
39265;BME280;42646;51.910;7.724;2023-05-24T01:56:01;101678.19;;;6.56;93.50
39265;BME280;42646;51.910;7.724;2023-05-24T01:58:32;101687.25;;;6.52;93.57
39265;BME280;42646;51.910;7.724;2023-05-24T02:01:01;101690.91;;;6.50;93.97
39265;BME280;42646;51.910;7.724;2023-05-24T02:03:30;101685.81;;;6.47;94.21
39265;BME280;42646;51.910;7.724;2023-05-24T02:05:57;101672.00;;;6.41;94.37
39265;BME280;42646;51.910;7.724;2023-05-24T02:08:25;101675.75;;;6.37;94.24
39265;BME280;42646;51.910;7.724;2023-05-24T02:10:53;101669.75;;;6.34;94.34
39265;BME280;42646;51.910;7.724;2023-05-24T02:13:21;101682.31;;;6.30;94.33
39265;BME280;42646;51.910;7.724;2023-05-24T02:15:50;101690.34;;;6.29;94.46
39265;BME280;42646;51.910;7.724;2023-05-24T02:18:20;101680.00;;;6.24;94.26
39265;BME280;42646;51.910;7.724;2023-05-24T02:20:47;101679.31;;;6.21;93.96
39265;BME280;42646;51.910;7.724;2023-05-24T02:23:15;101676.94;;;6.16;93.29
39265;BME280;42646;51.910;7.724;2023-05-24T02:25:43;101677.97;;;6.13;92.88
39265;BME280;42646;51.910;7.724;2023-05-24T02:28:10;101681.63;;;6.11;92.71
39265;BME280;42646;51.910;7.724;2023-05-24T02:30:38;101687.91;;;6.08;92.15
39265;BME280;42646;51.910;7.724;2023-05-24T02:33:11;101674.06;;;6.05;92.07
39265;BME280;42646;51.910;7.724;2023-05-24T02:35:39;101680.34;;;6.02;91.56
39265;BME280;42646;51.910;7.724;2023-05-24T02:38:07;101673.44;;;6.00;91.12
39265;BME280;42646;51.910;7.724;2023-05-24T02:40:35;101684.06;;;5.98;90.90
39265;BME280;42646;51.910;7.724;2023-05-24T02:43:02;101680.66;;;5.96;90.91
39265;BME280;42646;51.910;7.724;2023-05-24T02:45:30;101689.63;;;5.94;90.45
39265;BME280;42646;51.910;7.724;2023-05-24T02:47:58;101687.91;;;5.93;90.64
39265;BME280;42646;51.910;7.724;2023-05-24T02:50:27;101691.41;;;5.93;91.28
39265;BME280;42646;51.910;7.724;2023-05-24T02:52:55;101688.78;;;5.93;92.44
39265;BME280;42646;51.910;7.724;2023-05-24T02:55:23;101688.84;;;5.92;92.69
39265;BME280;42646;51.910;7.724;2023-05-24T02:57:52;101692.31;;;5.92;93.52
39265;BME280;42646;51.910;7.724;2023-05-24T03:00:20;101688.84;;;5.92;94.47
39265;BME280;42646;51.910;7.724;2023-05-24T03:02:48;101680.06;;;5.91;94.71
39265;BME280;42646;51.910;7.724;2023-05-24T03:05:17;101681.91;;;5.89;95.29
39265;BME280;42646;51.910;7.724;2023-05-24T03:07:46;101688.13;;;5.88;95.62
39265;BME280;42646;51.910;7.724;2023-05-24T03:10:14;101679.41;;;5.86;96.01
39265;BME280;42646;51.910;7.724;2023-05-24T03:12:42;101681.31;;;5.84;95.62
39265;BME280;42646;51.910;7.724;2023-05-24T03:15:10;101683.19;;;5.82;95.64
39265;BME280;42646;51.910;7.724;2023-05-24T03:17:37;101680.59;;;5.80;95.15
39265;BME280;42646;51.910;7.724;2023-05-24T03:20:06;101679.84;;;5.78;94.68
39265;BME280;42646;51.910;7.724;2023-05-24T03:22:35;101677.38;;;5.75;94.40
39265;BME280;42646;51.910;7.724;2023-05-24T03:25:05;101675.66;;;5.74;94.15
39265;BME280;42646;51.910;7.724;2023-05-24T03:27:34;101670.47;;;5.73;94.05
39265;BME280;42646;51.910;7.724;2023-05-24T03:30:03;101677.63;;;5.71;94.13
39265;BME280;42646;51.910;7.724;2023-05-24T03:32:37;101673.28;;;5.70;94.34
39265;BME280;42646;51.910;7.724;2023-05-24T03:35:05;101668.06;;;5.68;94.33
39265;BME280;42646;51.910;7.724;2023-05-24T03:37:33;101676.91;;;5.67;94.28
39265;BME280;42646;51.910;7.724;2023-05-24T03:40:01;101673.44;;;5.67;94.60
39265;BME280;42646;51.910;7.724;2023-05-24T03:42:41;101674.38;;;5.66;95.30
39265;BME280;42646;51.910;7.724;2023-05-24T03:45:10;101676.16;;;5.65;96.13
39265;BME280;42646;51.910;7.724;2023-05-24T03:47:44;101665.59;;;5.65;96.46
39265;BME280;42646;51.910;7.724;2023-05-24T03:50:12;101672.66;;;5.65;97.14
39265;BME280;42646;51.910;7.724;2023-05-24T03:52:41;101677.09;;;5.64;97.83
39265;BME280;42646;51.910;7.724;2023-05-24T03:55:08;101672.72;;;5.63;98.04
39265;BME280;42646;51.910;7.724;2023-05-24T03:57:37;101678.09;;;5.61;98.48
39265;BME280;42646;51.910;7.724;2023-05-24T04:00:07;101671.97;;;5.61;98.69
39265;BME280;42646;51.910;7.724;2023-05-24T04:02:39;101677.34;;;5.59;98.85
39265;BME280;42646;51.910;7.724;2023-05-24T04:05:08;101674.78;;;5.58;99.22
39265;BME280;42646;51.910;7.724;2023-05-24T04:07:37;101671.31;;;5.57;99.52
39265;BME280;42646;51.910;7.724;2023-05-24T04:10:06;101679.28;;;5.56;99.50
39265;BME280;42646;51.910;7.724;2023-05-24T04:12:34;101682.75;;;5.56;99.73
39265;BME280;42646;51.910;7.724;2023-05-24T04:15:07;101686.34;;;5.55;100.00
39265;BME280;42646;51.910;7.724;2023-05-24T04:17:35;101691.63;;;5.55;100.00
39265;BME280;42646;51.910;7.724;2023-05-24T04:20:05;101699.53;;;5.55;100.00
39265;BME280;42646;51.910;7.724;2023-05-24T04:22:35;101704.81;;;5.55;100.00
39265;BME280;42646;51.910;7.724;2023-05-24T04:25:04;101702.09;;;5.57;100.00
39265;BME280;42646;51.910;7.724;2023-05-24T04:27:32;101694.97;;;5.59;100.00
39265;BME280;42646;51.910;7.724;2023-05-24T04:30:01;101692.16;;;5.62;100.00
39265;BME280;42646;51.910;7.724;2023-05-24T04:32:30;101685.94;;;5.63;100.00
39265;BME280;42646;51.910;7.724;2023-05-24T04:34:59;101694.56;;;5.67;100.00
39265;BME280;42646;51.910;7.724;2023-05-24T04:37:28;101695.31;;;5.69;100.00
39265;BME280;42646;51.910;7.724;2023-05-24T04:39:57;101697.72;;;5.73;100.00
39265;BME280;42646;51.910;7.724;2023-05-24T04:42:24;101688.69;;;5.77;100.00
39265;BME280;42646;51.910;7.724;2023-05-24T04:44:52;101693.66;;;5.83;100.00
39265;BME280;42646;51.910;7.724;2023-05-24T04:47:20;101692.47;;;5.89;100.00
39265;BME280;42646;51.910;7.724;2023-05-24T04:49:49;101694.72;;;5.97;100.00
39265;BME280;42646;51.910;7.724;2023-05-24T04:52:17;101696.03;;;6.05;100.00
39265;BME280;42646;51.910;7.724;2023-05-24T04:54:44;101694.75;;;6.12;100.00
39265;BME280;42646;51.910;7.724;2023-05-24T04:57:12;101696.03;;;6.21;100.00
39265;BME280;42646;51.910;7.724;2023-05-24T04:59:40;101696.47;;;6.29;100.00
39265;BME280;42646;51.910;7.724;2023-05-24T05:02:07;101702.25;;;6.36;100.00
39265;BME280;42646;51.910;7.724;2023-05-24T05:04:35;101700.97;;;6.43;100.00
39265;BME280;42646;51.910;7.724;2023-05-24T05:07:05;101705.06;;;6.49;100.00
39265;BME280;42646;51.910;7.724;2023-05-24T05:09:32;101716.25;;;6.54;100.00
39265;BME280;42646;51.910;7.724;2023-05-24T05:12:00;101705.41;;;6.58;100.00
39265;BME280;42646;51.910;7.724;2023-05-24T05:14:28;101703.34;;;6.63;100.00
39265;BME280;42646;51.910;7.724;2023-05-24T05:16:55;101699.44;;;6.71;100.00
39265;BME280;42646;51.910;7.724;2023-05-24T05:19:23;101712.28;;;6.77;100.00
39265;BME280;42646;51.910;7.724;2023-05-24T05:21:50;101716.38;;;6.82;100.00
39265;BME280;42646;51.910;7.724;2023-05-24T05:24:19;101712.53;;;6.88;100.00
39265;BME280;42646;51.910;7.724;2023-05-24T05:26:47;101718.31;;;6.94;100.00
39265;BME280;42646;51.910;7.724;2023-05-24T05:29:15;101715.31;;;7.01;100.00
39265;BME280;42646;51.910;7.724;2023-05-24T05:31:43;101701.63;;;7.08;100.00
39265;BME280;42646;51.910;7.724;2023-05-24T05:34:10;101688.78;;;7.16;100.00
39265;BME280;42646;51.910;7.724;2023-05-24T05:36:38;101696.19;;;7.26;100.00
39265;BME280;42646;51.910;7.724;2023-05-24T05:39:06;101701.81;;;7.35;100.00
39265;BME280;42646;51.910;7.724;2023-05-24T05:41:37;101692.44;;;7.44;100.00
39265;BME280;42646;51.910;7.724;2023-05-24T05:44:05;101686.59;;;7.53;100.00
39265;BME280;42646;51.910;7.724;2023-05-24T05:46:33;101692.28;;;7.61;100.00
39265;BME280;42646;51.910;7.724;2023-05-24T05:49:00;101700.50;;;7.71;100.00
39265;BME280;42646;51.910;7.724;2023-05-24T05:51:28;101699.94;;;7.80;100.00
39265;BME280;42646;51.910;7.724;2023-05-24T05:53:57;101699.28;;;7.91;100.00
39265;BME280;42646;51.910;7.724;2023-05-24T05:56:24;101695.09;;;8.01;100.00
39265;BME280;42646;51.910;7.724;2023-05-24T05:58:54;101697.16;;;8.10;100.00
39265;BME280;42646;51.910;7.724;2023-05-24T06:01:22;101704.22;;;8.24;100.00
39265;BME280;42646;51.910;7.724;2023-05-24T06:03:49;101702.56;;;8.37;100.00
39265;BME280;42646;51.910;7.724;2023-05-24T06:06:17;101696.47;;;8.49;100.00
39265;BME280;42646;51.910;7.724;2023-05-24T06:08:45;101700.31;;;8.58;100.00
39265;BME280;42646;51.910;7.724;2023-05-24T06:11:13;101698.75;;;8.68;100.00
39265;BME280;42646;51.910;7.724;2023-05-24T06:13:40;101707.81;;;8.78;100.00
39265;BME280;42646;51.910;7.724;2023-05-24T06:16:09;101704.66;;;8.86;100.00
39265;BME280;42646;51.910;7.724;2023-05-24T06:18:37;101703.19;;;8.95;100.00
39265;BME280;42646;51.910;7.724;2023-05-24T06:21:15;101700.03;;;9.02;100.00
39265;BME280;42646;51.910;7.724;2023-05-24T06:23:43;101709.41;;;9.08;100.00
39265;BME280;42646;51.910;7.724;2023-05-24T06:26:11;101700.06;;;9.15;100.00
39265;BME280;42646;51.910;7.724;2023-05-24T06:28:38;101698.69;;;9.22;100.00
39265;BME280;42646;51.910;7.724;2023-05-24T06:31:06;101702.53;;;9.31;100.00
39265;BME280;42646;51.910;7.724;2023-05-24T06:33:35;101694.78;;;9.41;100.00
39265;BME280;42646;51.910;7.724;2023-05-24T06:36:03;101708.28;;;9.50;100.00
39265;BME280;42646;51.910;7.724;2023-05-24T06:38:31;101706.78;;;9.59;100.00
39265;BME280;42646;51.910;7.724;2023-05-24T06:40:59;101704.53;;;9.66;100.00
39265;BME280;42646;51.910;7.724;2023-05-24T06:43:27;101706.69;;;9.73;100.00
39265;BME280;42646;51.910;7.724;2023-05-24T06:45:56;101706.88;;;9.83;100.00
39265;BME280;42646;51.910;7.724;2023-05-24T06:48:23;101708.16;;;9.90;100.00
39265;BME280;42646;51.910;7.724;2023-05-24T06:50:53;101710.28;;;9.98;100.00
39265;BME280;42646;51.910;7.724;2023-05-24T06:53:21;101713.47;;;10.03;100.00
39265;BME280;42646;51.910;7.724;2023-05-24T06:55:49;101707.81;;;10.07;99.77
39265;BME280;42646;51.910;7.724;2023-05-24T06:58:17;101725.53;;;10.20;98.80
39265;BME280;42646;51.910;7.724;2023-05-24T07:00:44;101717.28;;;10.24;97.02
39265;BME280;42646;51.910;7.724;2023-05-24T07:03:12;101729.06;;;10.33;96.26
39265;BME280;42646;51.910;7.724;2023-05-24T07:05:40;101731.91;;;10.42;95.68
39265;BME280;42646;51.910;7.724;2023-05-24T07:08:09;101726.13;;;10.49;95.46
39265;BME280;42646;51.910;7.724;2023-05-24T07:10:36;101726.44;;;10.57;94.94
39265;BME280;42646;51.910;7.724;2023-05-24T07:13:04;101723.22;;;10.64;93.89
39265;BME280;42646;51.910;7.724;2023-05-24T07:15:32;101725.44;;;10.70;93.17
39265;BME280;42646;51.910;7.724;2023-05-24T07:17:59;101721.13;;;10.81;93.42
39265;BME280;42646;51.910;7.724;2023-05-24T07:20:27;101723.94;;;10.90;93.61
39265;BME280;42646;51.910;7.724;2023-05-24T07:22:55;101720.72;;;10.98;92.71
39265;BME280;42646;51.910;7.724;2023-05-24T07:25:23;101721.13;;;11.05;91.33
39265;BME280;42646;51.910;7.724;2023-05-24T07:27:51;101727.66;;;11.12;90.17
39265;BME280;42646;51.910;7.724;2023-05-24T07:30:19;101727.22;;;11.18;90.21
39265;BME280;42646;51.910;7.724;2023-05-24T07:32:57;101723.00;;;11.27;89.72
39265;BME280;42646;51.910;7.724;2023-05-24T07:35:25;101726.66;;;11.37;89.49
39265;BME280;42646;51.910;7.724;2023-05-24T07:37:54;101724.50;;;11.42;88.58
39265;BME280;42646;51.910;7.724;2023-05-24T07:40:24;101727.03;;;11.43;87.21
39265;BME280;42646;51.910;7.724;2023-05-24T07:42:52;101724.16;;;11.46;86.69
39265;BME280;42646;51.910;7.724;2023-05-24T07:45:20;101724.75;;;11.50;86.90
39265;BME280;42646;51.910;7.724;2023-05-24T07:47:48;101727.19;;;11.53;86.79
39265;BME280;42646;51.910;7.724;2023-05-24T07:50:16;101721.50;;;11.58;85.88
39265;BME280;42646;51.910;7.724;2023-05-24T07:52:44;101726.59;;;11.61;85.96
39265;BME280;42646;51.910;7.724;2023-05-24T07:55:11;101728.28;;;11.62;85.39
39265;BME280;42646;51.910;7.724;2023-05-24T07:57:41;101724.75;;;11.61;84.18
39265;BME280;42646;51.910;7.724;2023-05-24T08:00:10;101727.91;;;11.66;84.22
39265;BME280;42646;51.910;7.724;2023-05-24T08:02:40;101720.69;;;11.68;82.87
39265;BME280;42646;51.910;7.724;2023-05-24T08:05:10;101724.06;;;11.70;82.51
39265;BME280;42646;51.910;7.724;2023-05-24T08:07:38;101721.13;;;11.73;82.10
39265;BME280;42646;51.910;7.724;2023-05-24T08:10:08;101726.47;;;11.73;81.46
39265;BME280;42646;51.910;7.724;2023-05-24T08:12:38;101729.75;;;11.77;80.82
39265;BME280;42646;51.910;7.724;2023-05-24T08:15:07;101728.06;;;11.76;80.85
39265;BME280;42646;51.910;7.724;2023-05-24T08:17:37;101731.59;;;11.76;81.03
39265;BME280;42646;51.910;7.724;2023-05-24T08:20:06;101731.31;;;11.80;80.39
39265;BME280;42646;51.910;7.724;2023-05-24T08:22:35;101732.56;;;11.75;80.21
39265;BME280;42646;51.910;7.724;2023-05-24T08:25:04;101728.91;;;11.76;79.98
39265;BME280;42646;51.910;7.724;2023-05-24T08:27:32;101717.53;;;11.74;80.44
39265;BME280;42646;51.910;7.724;2023-05-24T08:30:00;101725.81;;;11.83;81.01
39265;BME280;42646;51.910;7.724;2023-05-24T08:32:30;101727.00;;;11.90;81.91
39265;BME280;42646;51.910;7.724;2023-05-24T08:35:23;101732.63;;;11.98;81.33
39265;BME280;42646;51.910;7.724;2023-05-24T08:37:51;101732.34;;;12.01;80.23
39265;BME280;42646;51.910;7.724;2023-05-24T08:40:18;101740.13;;;12.04;79.69
39265;BME280;42646;51.910;7.724;2023-05-24T08:42:47;101730.16;;;12.06;79.54
39265;BME280;42646;51.910;7.724;2023-05-24T08:45:16;101734.31;;;12.10;79.25
39265;BME280;42646;51.910;7.724;2023-05-24T08:47:46;101736.59;;;12.15;79.16
39265;BME280;42646;51.910;7.724;2023-05-24T08:50:16;101731.16;;;12.16;79.16
39265;BME280;42646;51.910;7.724;2023-05-24T08:52:45;101734.66;;;12.17;78.61
39265;BME280;42646;51.910;7.724;2023-05-24T08:55:13;101740.09;;;12.15;78.44
39265;BME280;42646;51.910;7.724;2023-05-24T08:57:43;101734.53;;;12.18;78.16
39265;BME280;42646;51.910;7.724;2023-05-24T09:00:12;101737.06;;;12.20;77.91
39265;BME280;42646;51.910;7.724;2023-05-24T09:02:41;101736.00;;;12.22;78.29
39265;BME280;42646;51.910;7.724;2023-05-24T09:05:12;101730.41;;;12.25;78.05
39265;BME280;42646;51.910;7.724;2023-05-24T09:07:43;101730.25;;;12.27;78.21
39265;BME280;42646;51.910;7.724;2023-05-24T09:10:11;101737.06;;;12.31;78.91
39265;BME280;42646;51.910;7.724;2023-05-24T09:12:43;101734.03;;;12.36;78.93
39265;BME280;42646;51.910;7.724;2023-05-24T09:15:11;101738.25;;;12.38;78.86
39265;BME280;42646;51.910;7.724;2023-05-24T09:17:38;101735.50;;;12.40;78.19
39265;BME280;42646;51.910;7.724;2023-05-24T09:20:07;101731.00;;;12.40;77.50
39265;BME280;42646;51.910;7.724;2023-05-24T09:22:40;101743.59;;;12.38;77.52
39265;BME280;42646;51.910;7.724;2023-05-24T09:25:09;101734.75;;;12.38;76.98
39265;BME280;42646;51.910;7.724;2023-05-24T09:27:37;101733.06;;;12.37;77.10
39265;BME280;42646;51.910;7.724;2023-05-24T09:30:07;101736.69;;;12.36;76.83
39265;BME280;42646;51.910;7.724;2023-05-24T09:32:36;101737.41;;;12.38;76.97
39265;BME280;42646;51.910;7.724;2023-05-24T09:35:07;101731.97;;;12.39;77.55
39265;BME280;42646;51.910;7.724;2023-05-24T09:37:37;101724.56;;;12.43;76.69
39265;BME280;42646;51.910;7.724;2023-05-24T09:40:10;101729.75;;;12.44;76.24
39265;BME280;42646;51.910;7.724;2023-05-24T09:42:43;101732.06;;;12.49;76.12
39265;BME280;42646;51.910;7.724;2023-05-24T09:45:11;101729.03;;;12.53;76.19
39265;BME280;42646;51.910;7.724;2023-05-24T09:47:41;101724.75;;;12.62;76.72
39265;BME280;42646;51.910;7.724;2023-05-24T09:50:11;101730.31;;;12.70;74.89
39265;BME280;42646;51.910;7.724;2023-05-24T09:52:41;101721.69;;;12.78;74.84
39265;BME280;42646;51.910;7.724;2023-05-24T09:55:12;101723.69;;;12.86;75.44
39265;BME280;42646;51.910;7.724;2023-05-24T09:57:42;101729.16;;;12.95;74.75
39265;BME280;42646;51.910;7.724;2023-05-24T10:00:10;101725.25;;;12.99;74.88
39265;BME280;42646;51.910;7.724;2023-05-24T10:02:43;101727.50;;;13.04;74.98
39265;BME280;42646;51.910;7.724;2023-05-24T10:05:19;101718.41;;;13.06;74.64
39265;BME280;42646;51.910;7.724;2023-05-24T10:07:49;101728.72;;;13.11;74.50
39265;BME280;42646;51.910;7.724;2023-05-24T10:10:18;101731.97;;;13.15;75.12
39265;BME280;42646;51.910;7.724;2023-05-24T10:12:46;101730.03;;;13.17;75.23
39265;BME280;42646;51.910;7.724;2023-05-24T10:15:14;101732.44;;;13.20;75.31
39265;BME280;42646;51.910;7.724;2023-05-24T10:17:42;101728.22;;;13.17;75.11
39265;BME280;42646;51.910;7.724;2023-05-24T10:20:10;101745.59;;;13.12;74.20
39265;BME280;42646;51.910;7.724;2023-05-24T10:22:41;101751.47;;;13.05;74.20
39265;BME280;42646;51.910;7.724;2023-05-24T10:25:13;101748.88;;;13.04;74.95
39265;BME280;42646;51.910;7.724;2023-05-24T10:27:43;101751.84;;;13.01;74.82
39265;BME280;42646;51.910;7.724;2023-05-24T10:30:16;101745.88;;;12.97;74.69
39265;BME280;42646;51.910;7.724;2023-05-24T10:32:47;101748.69;;;12.96;74.54
39265;BME280;42646;51.910;7.724;2023-05-24T10:35:17;101744.31;;;12.95;74.97
39265;BME280;42646;51.910;7.724;2023-05-24T10:37:45;101748.81;;;12.94;74.78
39265;BME280;42646;51.910;7.724;2023-05-24T10:40:19;101746.00;;;12.96;75.22
39265;BME280;42646;51.910;7.724;2023-05-24T10:42:47;101737.88;;;12.97;75.25
39265;BME280;42646;51.910;7.724;2023-05-24T10:45:31;101740.31;;;13.00;75.07
39265;BME280;42646;51.910;7.724;2023-05-24T10:48:36;101742.84;;;13.02;75.08
39265;BME280;42646;51.910;7.724;2023-05-24T10:51:29;101742.59;;;13.05;75.28
39265;BME280;42646;51.910;7.724;2023-05-24T10:54:09;101734.44;;;13.06;74.64
39265;BME280;42646;51.910;7.724;2023-05-24T10:56:39;101742.94;;;13.12;73.55
39265;BME280;42646;51.910;7.724;2023-05-24T10:59:07;101744.63;;;13.13;72.56
39265;BME280;42646;51.910;7.724;2023-05-24T11:01:35;101738.06;;;13.17;72.41
39265;BME280;42646;51.910;7.724;2023-05-24T11:04:09;101739.50;;;13.21;72.89
39265;BME280;42646;51.910;7.724;2023-05-24T11:06:44;101735.84;;;13.22;72.97
39265;BME280;42646;51.910;7.724;2023-05-24T11:09:13;101733.28;;;13.20;73.14
39265;BME280;42646;51.910;7.724;2023-05-24T11:11:43;101739.84;;;13.16;73.48
39265;BME280;42646;51.910;7.724;2023-05-24T11:14:11;101745.47;;;13.13;72.94
39265;BME280;42646;51.910;7.724;2023-05-24T11:16:44;101745.59;;;13.12;73.38
39265;BME280;42646;51.910;7.724;2023-05-24T11:19:17;101738.28;;;13.14;73.80
39265;BME280;42646;51.910;7.724;2023-05-24T11:21:46;101736.59;;;13.13;74.38
39265;BME280;42646;51.910;7.724;2023-05-24T11:24:15;101741.81;;;13.14;74.47
39265;BME280;42646;51.910;7.724;2023-05-24T11:26:43;101737.31;;;13.15;74.38
39265;BME280;42646;51.910;7.724;2023-05-24T11:29:14;101741.94;;;13.13;73.21
39265;BME280;42646;51.910;7.724;2023-05-24T11:31:49;101735.91;;;13.10;73.19
39265;BME280;42646;51.910;7.724;2023-05-24T11:34:19;101740.13;;;13.13;73.63
39265;BME280;42646;51.910;7.724;2023-05-24T11:36:47;101733.66;;;13.16;73.88
39265;BME280;42646;51.910;7.724;2023-05-24T11:39:15;101731.47;;;13.21;74.11
39265;BME280;42646;51.910;7.724;2023-05-24T11:41:43;101733.06;;;13.23;73.97
39265;BME280;42646;51.910;7.724;2023-05-24T11:44:11;101728.28;;;13.27;74.28
39265;BME280;42646;51.910;7.724;2023-05-24T11:46:39;101736.06;;;13.30;74.22
39265;BME280;42646;51.910;7.724;2023-05-24T11:49:11;101734.38;;;13.29;73.56
39265;BME280;42646;51.910;7.724;2023-05-24T11:51:40;101735.94;;;13.31;73.92
39265;BME280;42646;51.910;7.724;2023-05-24T11:54:08;101732.41;;;13.31;72.08
39265;BME280;42646;51.910;7.724;2023-05-24T11:56:37;101719.38;;;13.38;72.29
39265;BME280;42646;51.910;7.724;2023-05-24T11:59:13;101729.81;;;13.41;72.94
39265;BME280;42646;51.910;7.724;2023-05-24T12:01:41;101721.13;;;13.48;73.00
39265;BME280;42646;51.910;7.724;2023-05-24T12:04:09;101724.28;;;13.53;72.92
39265;BME280;42646;51.910;7.724;2023-05-24T12:06:40;101728.09;;;13.60;73.05
39265;BME280;42646;51.910;7.724;2023-05-24T12:09:10;101724.06;;;13.66;73.56
39265;BME280;42646;51.910;7.724;2023-05-24T12:11:39;101724.50;;;13.71;73.30
39265;BME280;42646;51.910;7.724;2023-05-24T12:14:11;101719.72;;;13.75;72.90
39265;BME280;42646;51.910;7.724;2023-05-24T12:16:41;101728.06;;;13.81;73.18
39265;BME280;42646;51.910;7.724;2023-05-24T12:19:12;101730.50;;;13.84;73.22
39265;BME280;42646;51.910;7.724;2023-05-24T12:22:02;101730.63;;;13.83;72.46
39265;BME280;42646;51.910;7.724;2023-05-24T12:24:31;101732.31;;;13.84;72.06
39265;BME280;42646;51.910;7.724;2023-05-24T12:27:01;101730.75;;;13.81;71.70
39265;BME280;42646;51.910;7.724;2023-05-24T12:29:33;101728.94;;;13.82;70.77
39265;BME280;42646;51.910;7.724;2023-05-24T12:32:02;101733.56;;;13.80;70.36
39265;BME280;42646;51.910;7.724;2023-05-24T12:34:31;101730.19;;;13.78;70.39
39265;BME280;42646;51.910;7.724;2023-05-24T12:37:01;101731.03;;;13.78;70.43
39265;BME280;42646;51.910;7.724;2023-05-24T12:39:29;101732.72;;;13.79;70.66
39265;BME280;42646;51.910;7.724;2023-05-24T12:42:00;101733.41;;;13.81;70.56
39265;BME280;42646;51.910;7.724;2023-05-24T12:44:29;101733.31;;;13.83;71.11
39265;BME280;42646;51.910;7.724;2023-05-24T12:46:58;101728.66;;;13.85;71.43
39265;BME280;42646;51.910;7.724;2023-05-24T12:49:26;101728.50;;;13.86;70.80
39265;BME280;42646;51.910;7.724;2023-05-24T12:51:54;101725.97;;;13.85;70.11
39265;BME280;42646;51.910;7.724;2023-05-24T12:54:25;101725.97;;;13.85;70.30
39265;BME280;42646;51.910;7.724;2023-05-24T12:56:54;101732.78;;;13.89;70.65
39265;BME280;42646;51.910;7.724;2023-05-24T12:59:24;101727.88;;;13.94;71.00
39265;BME280;42646;51.910;7.724;2023-05-24T13:01:52;101741.09;;;13.96;70.90
39265;BME280;42646;51.910;7.724;2023-05-24T13:04:21;101739.97;;;13.98;70.31
39265;BME280;42646;51.910;7.724;2023-05-24T13:06:49;101745.06;;;14.01;70.33